Time;durP1;ratioP1;P1;durP2;ratioP2;P2;SDS_P1;SDS_P2;PMS_P1;PMS_P2;Temp;Humidity;BMP_temperature;BMP_pressure;BME280_temperature;BME280_humidity;BME280_pressure;Samples;Min_cycle;Max_cycle;Signal;HPM_P1;HPM_P2
2023/07/30 13:25:32;;;;;;;0.68;0.30;;;35.60;56.50;;;;;;5152337;27;20398;-64
2023/07/30 13:27:59;;;;;;;0.45;0.20;;;35.80;55.80;;;;;;5152681;27;20039;-65
2023/07/30 13:30:26;;;;;;;0.30;0.30;;;35.60;54.50;;;;;;5137426;27;20035;-66
2023/07/30 13:32:52;;;;;;;0.95;0.22;;;36.30;54.00;;;;;;5130345;28;20028;-64
2023/07/30 13:35:18;;;;;;;1.10;0.30;;;36.10;52.60;;;;;;5131800;27;20098;-64
2023/07/30 13:37:45;;;;;;;1.08;0.60;;;35.10;53.70;;;;;;5131745;27;20031;-64
2023/07/30 13:40:11;;;;;;;0.70;0.40;;;35.00;54.00;;;;;;5131382;27;20531;-64
2023/07/30 13:42:37;;;;;;;0.52;0.47;;;34.20;55.40;;;;;;5131386;27;20071;-67
2023/07/30 13:45:04;;;;;;;0.38;0.38;;;34.00;56.10;;;;;;5129972;28;20023;-67
2023/07/30 13:47:31;;;;;;;0.32;0.30;;;33.30;57.00;;;;;;5131226;27;20469;-65
2023/07/30 13:49:57;;;;;;;0.40;0.40;;;32.30;58.40;;;;;;5130594;28;20107;-64
2023/07/30 13:52:23;;;;;;;0.32;0.30;;;31.40;60.20;;;;;;5131490;27;20114;-64
2023/07/30 13:54:50;;;;;;;1.17;0.50;;;30.50;61.20;;;;;;5131449;27;20035;-68
2023/07/30 13:57:26;;;;;;;0.40;0.40;;;29.90;62.50;;;;;;5131372;27;20148;-63
2023/07/30 13:59:53;;;;;;;0.63;0.52;;;29.30;64.20;;;;;;5129954;28;20528;-63
2023/07/30 14:02:19;;;;;;;0.47;0.47;;;28.80;66.20;;;;;;5129833;28;20053;-63
2023/07/30 14:04:45;;;;;;;0.32;0.32;;;28.60;66.40;;;;;;5131227;27;20106;-63
2023/07/30 14:07:12;;;;;;;1.95;0.50;;;28.30;67.90;;;;;;5130765;27;20429;-65
2023/07/30 14:09:38;;;;;;;1.08;0.30;;;28.10;69.10;;;;;;5129739;28;20028;-63
2023/07/30 14:12:05;;;;;;;2.38;0.43;;;27.90;70.20;;;;;;5131393;27;20110;-71
2023/07/30 14:14:31;;;;;;;0.57;0.50;;;27.60;73.00;;;;;;5129591;28;20031;-65
2023/07/30 14:16:58;;;;;;;0.60;0.60;;;27.30;73.50;;;;;;5130531;27;20378;-65
2023/07/30 14:19:25;;;;;;;1.83;1.17;;;26.60;75.90;;;;;;5131486;27;20035;-65
2023/07/30 14:21:51;;;;;;;4.15;1.10;;;26.00;79.70;;;;;;5130630;27;20537;-65
2023/07/30 14:24:17;;;;;;;3.17;1.20;;;25.00;90.20;;;;;;5127931;27;20050;-66
2023/07/30 14:26:43;;;;;;;6.20;1.55;;;23.80;94.00;;;;;;5115210;28;20388;-65
2023/07/30 14:29:09;;;;;;;2.72;1.00;;;22.90;99.90;;;;;;5117135;28;20027;-66
2023/07/30 14:31:34;;;;;;;3.40;1.27;;;22.20;99.90;;;;;;5117028;28;20020;-67
2023/07/30 14:34:00;;;;;;;2.25;1.02;;;21.80;99.90;;;;;;5115663;28;20035;-67
2023/07/30 14:36:26;;;;;;;3.72;1.15;;;21.50;99.90;;;;;;5116968;28;20156;-69
2023/07/30 14:38:52;;;;;;;1.88;1.00;;;21.10;99.90;;;;;;5116519;28;20027;-65
2023/07/30 14:41:18;;;;;;;1.77;0.88;;;20.90;99.90;;;;;;5128803;27;20352;-65
2023/07/30 14:43:44;;;;;;;3.03;1.10;;;20.70;99.90;;;;;;5136036;27;20023;-65
2023/07/30 14:46:13;;;;;;;2.97;1.10;;;20.40;99.90;;;;;;5137619;27;20023;-65
2023/07/30 14:48:41;;;;;;;7.78;1.23;;;20.00;99.90;;;;;;5137181;27;20058;-66
2023/07/30 14:51:07;;;;;;;5.40;1.45;;;19.80;99.90;;;;;;5137220;27;20460;-66
2023/07/30 14:53:33;;;;;;;3.97;1.33;;;19.50;99.90;;;;;;5135659;27;20433;-66
2023/07/30 14:55:59;;;;;;;5.55;1.58;;;19.50;99.90;;;;;;5137407;27;20031;-65
2023/07/30 14:58:25;;;;;;;3.55;1.25;;;19.40;99.90;;;;;;5135773;27;20477;-65
2023/07/30 15:00:52;;;;;;;3.13;1.27;;;19.60;99.90;;;;;;5136450;27;20019;-63
2023/07/30 15:03:18;;;;;;;5.47;1.38;;;19.60;99.90;;;;;;5117180;27;20472;-65
2023/07/30 15:05:44;;;;;;;3.92;1.35;;;19.60;99.90;;;;;;5116310;28;20046;-65
2023/07/30 15:08:10;;;;;;;2.53;1.23;;;19.60;99.90;;;;;;5116134;28;20020;-65
2023/07/30 15:10:36;;;;;;;2.88;1.00;;;19.70;99.90;;;;;;5116402;28;20027;-65
2023/07/30 15:13:02;;;;;;;2.88;0.80;;;19.80;99.90;;;;;;5116062;28;20035;-63
2023/07/30 15:15:28;;;;;;;2.42;1.00;;;20.10;99.90;;;;;;5116126;28;20080;-60
2023/07/30 15:17:54;;;;;;;3.15;1.02;;;20.10;99.90;;;;;;5115184;27;20114;-60
2023/07/30 15:20:20;;;;;;;0.93;0.88;;;20.20;99.90;;;;;;5116310;28;20039;-60
2023/07/30 15:22:47;;;;;;;2.70;1.08;;;20.20;99.90;;;;;;5116057;28;20019;-60
2023/07/30 15:25:13;;;;;;;1.17;0.95;;;20.30;99.90;;;;;;5114511;28;20066;-60
2023/07/30 15:27:39;;;;;;;2.30;1.02;;;20.30;99.90;;;;;;5115924;28;20030;-60
2023/07/30 15:30:05;;;;;;;3.20;1.20;;;20.30;99.90;;;;;;5115580;28;20099;-60
2023/07/30 15:32:32;;;;;;;1.95;0.90;;;20.20;99.90;;;;;;5116201;28;20114;-61
2023/07/30 15:34:59;;;;;;;1.95;0.77;;;20.10;99.90;;;;;;5115790;28;20122;-61
2023/07/30 15:37:25;;;;;;;2.05;0.73;;;20.00;99.90;;;;;;5114822;28;20028;-61
2023/07/30 15:39:51;;;;;;;2.00;0.93;;;19.90;99.90;;;;;;5115697;28;20025;-61
2023/07/30 15:42:18;;;;;;;8.35;1.50;;;19.80;99.90;;;;;;5115652;28;20019;-61
2023/07/30 15:44:44;;;;;;;5.93;1.58;;;19.60;99.90;;;;;;5115260;28;20032;-62
2023/07/30 15:47:11;;;;;;;5.53;1.00;;;19.40;99.90;;;;;;5119320;27;20062;-62
2023/07/30 15:49:37;;;;;;;9.75;1.15;;;19.20;99.90;;;;;;5133784;27;20165;-60
2023/07/30 15:52:04;;;;;;;2.85;0.85;;;19.20;99.90;;;;;;5135587;27;20380;-62
2023/07/30 15:54:38;;;;;;;2.38;1.20;;;19.30;99.90;;;;;;5135442;27;20372;-62
2023/07/30 15:57:11;;;;;;;1.55;0.85;;;19.20;99.90;;;;;;5135846;27;20026;-62
2023/07/30 15:59:37;;;;;;;3.20;1.23;;;19.10;99.90;;;;;;5135516;27;20059;-62
2023/07/30 16:02:04;;;;;;;3.75;0.98;;;19.30;99.90;;;;;;5135708;27;20049;-61
2023/07/30 16:04:33;;;;;;;1.20;1.10;;;19.50;99.90;;;;;;5135765;27;20019;-62
2023/07/30 16:07:00;;;;;;;2.72;0.70;;;19.50;99.90;;;;;;5135808;27;20027;-62
2023/07/30 16:09:26;;;;;;;1.55;0.52;;;19.50;99.90;;;;;;5131279;27;20094;-62
2023/07/30 16:11:53;;;;;;;2.20;0.57;;;19.40;99.90;;;;;;5123884;27;20020;-62
2023/07/30 16:14:22;;;;;;;1.17;0.70;;;19.40;99.90;;;;;;5128216;27;20098;-65
2023/07/30 16:16:48;;;;;;;0.50;0.50;;;19.30;99.90;;;;;;5135619;27;20020;-62
2023/07/30 16:19:17;;;;;;;2.90;1.00;;;19.20;99.90;;;;;;5134094;27;20023;-63
2023/07/30 16:21:48;;;;;;;0.65;0.65;;;19.20;99.90;;;;;;5134385;27;20337;-66
2023/07/30 16:24:15;;;;;;;0.57;0.50;;;19.20;99.90;;;;;;5133977;27;20056;-66
2023/07/30 16:26:42;;;;;;;1.25;0.70;;;19.20;99.90;;;;;;5135348;27;20019;-66
2023/07/30 16:29:08;;;;;;;1.80;1.15;;;19.20;99.90;;;;;;5134055;27;20051;-64
2023/07/30 16:31:35;;;;;;;3.35;0.80;;;19.20;99.90;;;;;;5135538;27;20071;-66
2023/07/30 16:34:01;;;;;;;2.30;0.82;;;19.30;99.90;;;;;;5135415;27;20036;-65
2023/07/30 16:36:28;;;;;;;1.02;0.80;;;19.30;99.90;;;;;;5135242;27;20033;-66
2023/07/30 16:38:56;;;;;;;0.80;0.80;;;19.40;99.90;;;;;;5135206;27;20023;-66
2023/07/30 16:41:23;;;;;;;1.00;1.00;;;19.50;99.90;;;;;;5133739;27;20031;-64
2023/07/30 16:43:49;;;;;;;3.60;0.80;;;19.50;99.90;;;;;;5133693;27;20461;-65
2023/07/30 16:46:15;;;;;;;2.40;1.00;;;19.70;99.90;;;;;;5135021;27;20337;-64
2023/07/30 16:48:42;;;;;;;1.35;1.00;;;19.80;99.90;;;;;;5134725;27;20040;-66
2023/07/30 16:51:08;;;;;;;4.72;0.65;;;19.90;99.90;;;;;;5134848;27;20068;-64
2023/07/30 16:53:34;;;;;;;2.80;1.00;;;20.10;99.90;;;;;;5134711;27;20031;-64
2023/07/30 16:56:12;;;;;;;2.40;1.15;;;20.20;99.90;;;;;;5133268;27;20114;-63
2023/07/30 16:58:38;;;;;;;1.45;1.38;;;20.30;99.90;;;;;;5133737;27;20027;-66
2023/07/30 17:01:05;;;;;;;1.60;1.00;;;20.40;99.90;;;;;;5134842;27;20046;-66
2023/07/30 17:03:33;;;;;;;1.95;0.80;;;20.50;99.90;;;;;;5133754;27;20062;-65
2023/07/30 17:06:01;;;;;;;3.53;1.67;;;20.60;99.90;;;;;;5134684;27;20371;-67
2023/07/30 17:08:28;;;;;;;0.93;0.93;;;20.50;99.90;;;;;;5134463;27;20253;-66
2023/07/30 17:10:54;;;;;;;2.05;1.10;;;20.50;99.90;;;;;;5132993;28;20023;-64
2023/07/30 17:13:22;;;;;;;1.23;1.08;;;20.50;99.90;;;;;;5134504;27;20035;-66
2023/07/30 17:15:48;;;;;;;2.58;1.73;;;20.50;99.90;;;;;;5133208;28;20027;-64
2023/07/30 17:18:16;;;;;;;3.40;1.33;;;20.40;99.90;;;;;;5134473;27;20019;-66
2023/07/30 17:20:56;;;;;;;1.33;1.10;;;20.50;99.90;;;;;;5134803;27;20020;-64
2023/07/30 17:23:23;;;;;;;1.25;1.15;;;20.50;99.90;;;;;;5136160;27;20070;-65
2023/07/30 17:25:54;;;;;;;1.10;1.10;;;20.40;99.90;;;;;;5155685;27;20073;-66
2023/07/30 17:28:20;;;;;;;1.25;1.15;;;20.40;99.90;;;;;;5154933;27;20106;-65
2023/07/30 17:30:47;;;;;;;3.40;1.60;;;20.40;99.90;;;;;;5155107;27;20031;-65
2023/07/30 17:33:13;;;;;;;3.05;1.27;;;20.40;99.90;;;;;;5136469;27;20130;-65
2023/07/30 17:35:39;;;;;;;1.38;1.27;;;20.40;99.90;;;;;;5136521;27;20382;-65
2023/07/30 17:38:06;;;;;;;16.25;10.40;;;20.30;99.90;;;;;;5136423;27;20490;-66
2023/07/30 17:40:32;;;;;;;4.60;1.40;;;20.20;99.90;;;;;;5136425;27;20025;-66
2023/07/30 17:42:58;;;;;;;1.85;1.52;;;20.20;99.90;;;;;;5136577;27;20023;-66
2023/07/30 17:45:25;;;;;;;1.95;1.50;;;20.10;99.90;;;;;;5154840;27;20019;-66
2023/07/30 17:47:51;;;;;;;1.67;1.35;;;20.00;99.90;;;;;;5136396;27;20118;-66
2023/07/30 17:50:17;;;;;;;3.08;1.60;;;19.90;99.90;;;;;;5155157;27;20077;-66
2023/07/30 17:52:44;;;;;;;1.92;1.40;;;19.80;99.90;;;;;;5136294;27;20463;-66
2023/07/30 17:55:10;;;;;;;2.25;1.42;;;19.70;99.90;;;;;;5154872;27;20033;-66
2023/07/30 17:57:38;;;;;;;3.95;1.77;;;19.70;99.90;;;;;;5155283;27;20015;-65
2023/07/30 18:00:06;;;;;;;1.40;1.30;;;19.50;99.90;;;;;;5137259;27;20482;-66
2023/07/30 18:02:33;;;;;;;3.13;1.48;;;19.40;99.90;;;;;;5140257;27;20023;-66
2023/07/30 18:04:59;;;;;;;2.15;1.98;;;19.30;99.90;;;;;;5158493;27;20030;-66
2023/07/30 18:07:25;;;;;;;2.67;1.48;;;19.10;99.90;;;;;;5158532;27;20413;-65
2023/07/30 18:09:52;;;;;;;3.38;1.80;;;19.00;99.90;;;;;;5158858;27;20026;-66
2023/07/30 18:12:19;;;;;;;2.90;1.60;;;18.90;99.90;;;;;;5158706;27;20026;-66
2023/07/30 18:14:45;;;;;;;2.58;2.03;;;18.80;99.90;;;;;;5139972;27;20114;-66
2023/07/30 18:17:11;;;;;;;2.85;1.67;;;18.70;99.90;;;;;;5158600;27;20058;-66
2023/07/30 18:19:38;;;;;;;3.08;1.80;;;18.60;99.90;;;;;;5158155;27;20030;-66
2023/07/30 18:22:05;;;;;;;1.60;1.50;;;18.50;99.90;;;;;;5158711;27;20031;-66
2023/07/30 18:24:32;;;;;;;1.60;1.50;;;18.40;99.90;;;;;;5158156;27;20081;-66
2023/07/30 18:26:59;;;;;;;3.42;2.15;;;18.30;99.90;;;;;;5158031;27;20102;-66
2023/07/30 18:29:26;;;;;;;4.30;1.65;;;18.30;99.90;;;;;;5158299;27;20046;-66
2023/07/30 18:32:03;;;;;;;3.03;1.88;;;18.20;99.90;;;;;;5139651;27;20023;-66
2023/07/30 18:34:30;;;;;;;4.07;1.98;;;18.10;99.90;;;;;;5157844;27;20383;-66
2023/07/30 18:36:56;;;;;;;2.25;2.05;;;18.00;99.90;;;;;;5139199;27;20025;-66
2023/07/30 18:39:22;;;;;;;2.85;2.13;;;17.90;99.90;;;;;;5158020;27;20023;-66
2023/07/30 18:41:51;;;;;;;2.58;1.48;;;17.80;99.90;;;;;;5139407;27;20023;-66
2023/07/30 18:44:17;;;;;;;3.22;1.60;;;17.80;99.90;;;;;;5157828;27;20479;-66
2023/07/30 18:46:45;;;;;;;1.75;1.65;;;17.60;99.90;;;;;;5157397;27;20031;-66
2023/07/30 18:49:11;;;;;;;4.72;2.10;;;17.60;99.90;;;;;;5157620;27;20395;-66
2023/07/30 18:51:38;;;;;;;2.40;1.92;;;17.50;99.90;;;;;;5158212;27;20026;-66
2023/07/30 18:54:04;;;;;;;3.60;2.10;;;17.50;99.90;;;;;;5157733;27;20031;-66
2023/07/30 18:56:31;;;;;;;2.30;2.08;;;17.50;99.90;;;;;;5139412;27;20076;-66
2023/07/30 18:58:57;;;;;;;5.00;2.08;;;17.50;99.90;;;;;;5139214;27;20079;-65
2023/07/30 19:01:25;;;;;;;4.18;2.30;;;17.50;99.90;;;;;;5157801;27;20023;-65
2023/07/30 19:03:54;;;;;;;3.47;1.92;;;17.40;99.90;;;;;;5157584;27;20027;-66
2023/07/30 19:06:20;;;;;;;3.80;2.40;;;17.40;99.90;;;;;;5157322;27;20505;-66
2023/07/30 19:08:47;;;;;;;2.75;1.90;;;17.40;99.90;;;;;;5157605;27;20106;-66
2023/07/30 19:11:14;;;;;;;3.42;2.40;;;17.30;99.90;;;;;;5157159;27;20102;-66
2023/07/30 19:13:41;;;;;;;3.35;2.38;;;17.30;99.90;;;;;;5138695;27;20030;-65
2023/07/30 19:16:07;;;;;;;3.58;2.17;;;17.30;99.90;;;;;;5157451;27;20455;-65
2023/07/30 19:18:33;;;;;;;3.40;2.03;;;17.40;99.90;;;;;;5157026;27;20027;-65
2023/07/30 19:20:59;;;;;;;4.45;2.40;;;17.40;99.90;;;;;;5138631;27;20023;-65
2023/07/30 19:23:26;;;;;;;2.05;1.95;;;17.30;99.90;;;;;;5157041;27;20058;-65
2023/07/30 19:25:54;;;;;;;2.75;1.73;;;17.30;99.90;;;;;;5157650;27;20034;-65
2023/07/30 19:28:22;;;;;;;7.70;2.40;;;17.30;99.90;;;;;;5138988;27;20468;-59
2023/07/30 19:30:48;;;;;;;4.38;1.90;;;17.30;99.90;;;;;;5156707;27;20037;-58
2023/07/30 19:33:14;;;;;;;3.67;2.00;;;17.30;99.90;;;;;;5156795;27;20026;-58
2023/07/30 19:35:40;;;;;;;2.70;2.50;;;17.30;99.90;;;;;;5157056;27;20019;-65
2023/07/30 19:38:07;;;;;;;5.93;2.72;;;17.30;99.90;;;;;;5156743;27;20464;-58
2023/07/30 19:40:34;;;;;;;3.53;2.22;;;17.30;99.90;;;;;;5156557;27;20486;-58
2023/07/30 19:43:00;;;;;;;4.63;2.28;;;17.30;99.90;;;;;;5156899;27;20029;-58
2023/07/30 19:45:27;;;;;;;13.07;4.10;;;17.30;99.90;;;;;;5156912;27;20109;-58
2023/07/30 19:47:54;;;;;;;3.35;2.08;;;17.30;99.90;;;;;;5156439;27;20421;-59
2023/07/30 19:50:23;;;;;;;3.67;2.85;;;17.30;99.90;;;;;;5156650;27;20027;-59
2023/07/30 19:52:49;;;;;;;2.95;2.40;;;17.40;99.90;;;;;;5156677;27;20039;-58
2023/07/30 19:55:16;;;;;;;4.15;2.38;;;17.40;99.90;;;;;;5138152;27;20030;-58
2023/07/30 19:57:42;;;;;;;2.08;1.98;;;17.40;99.90;;;;;;5156875;27;20026;-59
2023/07/30 20:00:08;;;;;;;2.08;1.83;;;17.40;99.90;;;;;;5156536;27;20023;-58
2023/07/30 20:02:35;;;;;;;3.20;2.25;;;17.50;99.90;;;;;;5156156;27;20022;-58
2023/07/30 20:05:03;;;;;;;3.50;1.80;;;17.60;99.90;;;;;;5156269;27;20105;-58
2023/07/30 20:07:29;;;;;;;4.40;1.87;;;17.60;99.90;;;;;;5137985;27;20033;-58
2023/07/30 20:09:56;;;;;;;3.13;1.90;;;17.70;99.90;;;;;;5156332;27;20069;-58
2023/07/30 20:12:22;;;;;;;1.95;1.63;;;17.70;99.90;;;;;;5156400;27;20019;-58
2023/07/30 20:14:50;;;;;;;2.70;1.73;;;17.90;99.90;;;;;;5156212;27;20034;-58
2023/07/30 20:17:16;;;;;;;2.53;1.90;;;18.00;99.90;;;;;;5156288;27;20030;-58
2023/07/30 20:19:43;;;;;;;2.97;1.70;;;18.00;99.90;;;;;;5156111;27;20019;-58
2023/07/30 20:22:12;;;;;;;1.40;1.30;;;18.20;99.90;;;;;;5155689;27;20030;-58
2023/07/30 20:24:38;;;;;;;2.88;1.38;;;18.40;99.90;;;;;;5155944;27;20042;-58
2023/07/30 20:27:05;;;;;;;1.92;1.30;;;18.50;99.90;;;;;;5155991;27;20084;-58
2023/07/30 20:29:34;;;;;;;2.22;1.60;;;18.60;99.90;;;;;;5156038;27;20022;-58
2023/07/30 20:32:01;;;;;;;3.00;1.13;;;18.70;99.90;;;;;;5156123;27;20019;-58
2023/07/30 20:34:27;;;;;;;4.13;1.33;;;18.80;99.90;;;;;;5155415;27;20518;-58
2023/07/30 20:36:53;;;;;;;1.40;1.30;;;18.90;99.90;;;;;;5155969;27;20025;-58
2023/07/30 20:39:20;;;;;;;1.02;1.02;;;19.00;99.90;;;;;;5156140;27;20367;-58
2023/07/30 20:41:46;;;;;;;1.70;1.50;;;18.90;99.90;;;;;;5156117;27;20352;-58
2023/07/30 20:44:12;;;;;;;2.38;1.50;;;18.80;99.90;;;;;;5155723;27;20030;-58
2023/07/30 20:46:38;;;;;;;1.00;1.00;;;18.90;99.90;;;;;;5156053;27;20050;-58
2023/07/30 20:49:05;;;;;;;2.70;1.38;;;19.10;99.90;;;;;;5155717;27;20030;-58
2023/07/30 20:51:31;;;;;;;3.88;1.33;;;19.20;99.90;;;;;;5155705;27;20026;-58
2023/07/30 20:53:57;;;;;;;0.90;0.90;;;19.30;99.90;;;;;;5155355;27;20130;-58
2023/07/30 20:56:23;;;;;;;2.58;1.20;;;19.40;99.90;;;;;;5137065;27;20074;-58
2023/07/30 20:58:49;;;;;;;2.38;1.40;;;19.60;99.90;;;;;;5155635;27;20027;-58
2023/07/30 21:01:14;;;;;;;1.35;1.20;;;19.50;99.90;;;;;;5155771;27;20459;-58
2023/07/30 21:03:41;;;;;;;2.30;1.15;;;19.50;99.90;;;;;;5155521;27;20027;-58
2023/07/30 21:06:06;;;;;;;1.55;1.38;;;19.60;99.90;;;;;;5137013;27;20034;-58
2023/07/30 21:08:32;;;;;;;3.17;1.27;;;19.70;99.90;;;;;;5155804;27;20035;-58
2023/07/30 21:10:58;;;;;;;1.80;1.30;;;19.80;99.90;;;;;;5155561;27;20023;-58
2023/07/30 21:13:24;;;;;;;1.65;1.40;;;19.90;99.90;;;;;;5155449;27;20026;-58
2023/07/30 21:15:49;;;;;;;1.42;1.33;;;19.90;99.90;;;;;;5155484;27;20440;-58
2023/07/30 21:18:16;;;;;;;3.25;1.33;;;19.90;99.90;;;;;;5155704;27;20098;-58
2023/07/30 21:20:42;;;;;;;2.60;1.20;;;20.00;99.90;;;;;;5137287;27;20018;-58
2023/07/30 21:23:08;;;;;;;2.25;1.27;;;20.00;99.90;;;;;;5155099;27;20027;-59
2023/07/30 21:25:33;;;;;;;1.70;1.10;;;19.90;99.90;;;;;;5137509;27;20114;-58
2023/07/30 21:27:59;;;;;;;0.90;0.90;;;20.00;99.90;;;;;;5155306;27;20087;-58
2023/07/30 21:30:26;;;;;;;3.85;1.08;;;20.00;99.90;;;;;;5136738;27;20382;-59
2023/07/30 21:32:52;;;;;;;1.60;1.10;;;20.10;99.90;;;;;;5155207;27;20579;-58
2023/07/30 21:35:17;;;;;;;1.63;1.10;;;20.10;99.90;;;;;;5156350;27;20026;-59
2023/07/30 21:37:43;;;;;;;1.95;1.20;;;20.10;99.90;;;;;;5159162;27;20105;-59
2023/07/30 21:40:09;;;;;;;2.03;1.10;;;20.00;99.90;;;;;;5159595;27;20033;-59
2023/07/30 21:42:34;;;;;;;1.50;1.33;;;20.00;99.90;;;;;;5140836;27;20023;-58
2023/07/30 21:45:00;;;;;;;0.90;0.90;;;20.00;99.90;;;;;;5159310;27;20033;-58
2023/07/30 21:47:26;;;;;;;1.45;1.20;;;20.00;99.90;;;;;;5158949;27;20101;-58
2023/07/30 21:49:52;;;;;;;2.58;1.00;;;19.80;99.90;;;;;;5158972;27;20471;-58
2023/07/30 21:52:25;;;;;;;1.95;1.02;;;19.50;99.90;;;;;;5159159;27;20023;-59
2023/07/30 21:54:51;;;;;;;1.48;1.20;;;19.40;99.90;;;;;;5158977;27;20038;-59
2023/07/30 21:57:17;;;;;;;1.40;1.13;;;19.20;99.90;;;;;;5159286;27;20029;-58
2023/07/30 21:59:43;;;;;;;2.25;1.38;;;19.00;99.90;;;;;;5158978;27;20026;-59
2023/07/30 22:02:09;;;;;;;3.30;1.40;;;18.90;99.90;;;;;;5158813;27;20027;-58
2023/07/30 22:04:34;;;;;;;2.05;1.17;;;18.90;99.90;;;;;;5159102;27;20026;-58
2023/07/30 22:07:00;;;;;;;1.40;1.17;;;18.80;99.90;;;;;;5158587;27;20027;-58
2023/07/30 22:09:26;;;;;;;2.95;1.30;;;18.60;99.90;;;;;;5158828;27;20056;-58
2023/07/30 22:11:51;;;;;;;1.20;1.13;;;18.50;99.90;;;;;;5158728;27;20420;-58
2023/07/30 22:14:17;;;;;;;1.30;1.05;;;18.40;99.90;;;;;;5158371;27;20037;-58
2023/07/30 22:16:43;;;;;;;1.75;1.50;;;18.30;99.90;;;;;;5158701;27;20026;-58
2023/07/30 22:19:09;;;;;;;1.48;1.38;;;18.30;99.90;;;;;;5161761;27;20034;-58
2023/07/30 22:21:35;;;;;;;2.38;1.30;;;18.20;99.90;;;;;;5173242;27;20045;-58
2023/07/30 22:24:00;;;;;;;1.73;1.30;;;18.20;99.90;;;;;;5158495;27;20070;-58
2023/07/30 22:26:26;;;;;;;5.63;1.40;;;18.20;99.90;;;;;;5178333;27;20075;-58
2023/07/30 22:28:52;;;;;;;2.25;1.05;;;18.30;99.90;;;;;;5179068;27;20019;-59
2023/07/30 22:31:17;;;;;;;1.27;1.17;;;18.20;99.90;;;;;;5158896;27;20026;-58
2023/07/30 22:33:43;;;;;;;3.08;1.10;;;18.30;99.90;;;;;;5139775;27;20035;-58
2023/07/30 22:36:08;;;;;;;5.00;1.60;;;18.30;99.90;;;;;;5158109;27;20030;-58
2023/07/30 22:38:34;;;;;;;2.50;1.50;;;18.20;99.90;;;;;;5158225;27;20058;-58
2023/07/30 22:40:59;;;;;;;2.92;1.40;;;18.30;99.90;;;;;;5158245;27;20029;-58
2023/07/30 22:43:25;;;;;;;1.83;1.67;;;18.40;99.90;;;;;;5158258;27;20396;-58
2023/07/30 22:45:51;;;;;;;2.33;1.17;;;18.60;99.90;;;;;;5156375;27;20106;-58
2023/07/30 22:48:16;;;;;;;1.30;1.20;;;18.70;99.90;;;;;;5158460;27;20059;-58
2023/07/30 22:50:45;;;;;;;1.45;1.35;;;18.80;99.90;;;;;;5157841;27;20110;-58
2023/07/30 22:53:11;;;;;;;2.40;1.52;;;18.80;99.90;;;;;;5177386;27;20021;-58
2023/07/30 22:55:37;;;;;;;3.95;1.10;;;18.80;99.90;;;;;;5178742;27;20026;-58
2023/07/30 22:58:03;;;;;;;2.45;1.50;;;18.70;99.90;;;;;;5178479;27;20105;-59
2023/07/30 23:00:29;;;;;;;1.20;1.10;;;18.70;99.90;;;;;;5178482;27;20057;-66
2023/07/30 23:02:54;;;;;;;2.20;1.90;;;18.70;99.90;;;;;;5159970;27;20075;-67
2023/07/30 23:05:20;;;;;;;3.20;1.05;;;18.70;99.90;;;;;;5178417;27;20026;-67
2023/07/30 23:07:46;;;;;;;2.95;1.17;;;18.60;99.90;;;;;;5159866;27;20019;-67
2023/07/30 23:10:11;;;;;;;2.03;1.38;;;18.50;99.90;;;;;;5160203;27;20023;-66
2023/07/30 23:12:37;;;;;;;3.45;1.30;;;18.40;99.90;;;;;;5160191;27;20412;-66
2023/07/30 23:15:03;;;;;;;2.55;1.20;;;18.30;99.90;;;;;;5178624;27;20066;-66
2023/07/30 23:17:29;;;;;;;1.98;1.17;;;18.30;99.90;;;;;;5178187;27;20026;-66
2023/07/30 23:19:54;;;;;;;1.77;1.20;;;18.30;99.90;;;;;;5178375;27;20378;-67
2023/07/30 23:22:20;;;;;;;1.27;1.17;;;18.30;99.90;;;;;;5178587;27;20026;-67
2023/07/30 23:24:45;;;;;;;5.28;1.33;;;18.20;99.90;;;;;;5177846;27;20046;-67
2023/07/30 23:27:11;;;;;;;2.13;1.52;;;18.20;99.90;;;;;;5159644;27;20491;-67
2023/07/30 23:29:36;;;;;;;1.50;1.40;;;18.20;99.90;;;;;;5178429;27;20026;-66
2023/07/30 23:32:02;;;;;;;2.17;1.10;;;18.10;99.90;;;;;;5177881;27;20098;-66
2023/07/30 23:34:28;;;;;;;1.10;1.00;;;18.10;99.90;;;;;;5177750;27;20034;-66
2023/07/30 23:36:53;;;;;;;2.38;1.00;;;18.00;99.90;;;;;;5178042;27;20133;-66
2023/07/30 23:39:19;;;;;;;1.65;1.10;;;18.00;99.90;;;;;;5178246;27;20032;-66
2023/07/30 23:41:45;;;;;;;1.83;1.17;;;18.00;99.90;;;;;;5177658;27;20026;-66
2023/07/30 23:44:10;;;;;;;0.82;0.82;;;18.00;99.90;;;;;;5177600;27;20023;-66
2023/07/30 23:46:36;;;;;;;3.30;1.02;;;18.00;99.90;;;;;;5177558;27;20535;-67
2023/07/30 23:49:02;;;;;;;1.58;1.15;;;18.00;99.90;;;;;;5177793;27;20074;-67
2023/07/30 23:51:29;;;;;;;4.70;1.10;;;18.00;99.90;;;;;;5177511;27;20067;-67
2023/07/30 23:53:55;;;;;;;2.05;1.02;;;18.00;99.90;;;;;;5177872;27;20087;-66
2023/07/30 23:56:20;;;;;;;1.48;0.88;;;18.00;99.90;;;;;;5177670;27;20408;-67
2023/07/30 23:58:46;;;;;;;2.40;1.15;;;18.00;99.90;;;;;;5176440;27;20018;-67
